Terminal Aerodrome Forecast
Issued by NWS

Home | Current Version | Previous Version | Text Only | Print | Product List | Glossary On
Versions: 1 2 3 4 5 6 7 8 9 10 11 12 13 14 15 16
000
FTUS43 KILX 292321
TAFCMI
TAF
KCMI 292321Z 3000/3024 22004KT P6SM VCSH BKN070
      TEMPO 3000/3001 5SM -TSRA BKN050CB
     FM300900 18004KT 5SM BR BKN035
     FM301400 20003KT P6SM BKN035=

USA.gov is the U.S. government's official web portal to all federal, state and local government web resources and services.